Time;durP1;ratioP1;P1;durP2;ratioP2;P2;SDS_P1;SDS_P2;PMS_P1;PMS_P2;Temp;Humidity;BMP_temperature;BMP_pressure;BME280_temperature;BME280_humidity;BME280_pressure;Samples;Min_cycle;Max_cycle;Signal;HPM_P1;HPM_P2
2022/05/30 00:02:13;;;;;;;2.17;1.20;;;15.90;39.40;;;;;;5155376;27;20594;-40
2022/05/30 00:04:39;;;;;;;2.53;1.60;;;15.90;39.60;;;;;;5155451;27;20221;-40
2022/05/30 00:07:06;;;;;;;2.63;1.53;;;15.90;39.90;;;;;;5155267;27;20692;-40
2022/05/30 00:09:33;;;;;;;3.78;2.00;;;15.90;40.10;;;;;;5155204;27;20406;-40
2022/05/30 00:12:00;;;;;;;3.65;1.92;;;15.80;40.80;;;;;;5155175;27;20641;-40
2022/05/30 00:14:26;;;;;;;3.22;1.58;;;15.80;40.20;;;;;;5155081;27;20238;-40
2022/05/30 00:16:52;;;;;;;2.60;1.60;;;15.70;40.20;;;;;;5155081;27;20194;-40
2022/05/30 00:19:18;;;;;;;3.45;1.70;;;15.70;40.20;;;;;;5155242;27;20266;-40
2022/05/30 00:21:44;;;;;;;1.63;0.82;;;15.80;39.70;;;;;;5154961;27;20641;-39
2022/05/30 00:24:11;;;;;;;1.57;1.07;;;15.70;39.90;;;;;;5154771;27;20178;-40
2022/05/30 00:26:37;;;;;;;2.42;0.85;;;15.70;40.10;;;;;;5154756;27;20270;-40
2022/05/30 00:29:04;;;;;;;1.70;0.88;;;15.60;40.30;;;;;;5154775;27;20229;-40
2022/05/30 00:31:31;;;;;;;1.50;1.00;;;15.60;40.80;;;;;;5154932;27;20172;-40
2022/05/30 00:33:57;;;;;;;1.95;1.30;;;15.60;39.90;;;;;;5154639;27;20170;-40
2022/05/30 00:36:23;;;;;;;2.27;1.70;;;15.60;39.70;;;;;;5154557;27;20269;-40
2022/05/30 00:38:48;;;;;;;1.50;0.70;;;15.60;40.00;;;;;;5154648;27;20407;-39
2022/05/30 00:41:15;;;;;;;1.40;0.83;;;15.60;39.60;;;;;;5154616;27;20487;-40
2022/05/30 00:43:44;;;;;;;1.48;0.75;;;15.60;40.00;;;;;;5154623;27;20648;-40
2022/05/30 00:46:15;;;;;;;2.80;1.42;;;15.60;39.70;;;;;;5153987;27;20281;-40
2022/05/30 00:48:47;;;;;;;2.40;1.50;;;15.50;39.70;;;;;;5154491;27;20172;-40
2022/05/30 00:51:21;;;;;;;1.50;1.00;;;15.60;39.80;;;;;;5154696;27;20235;-39
2022/05/30 00:53:50;;;;;;;1.98;0.90;;;15.60;40.30;;;;;;5154524;27;20171;-41
2022/05/30 00:56:17;;;;;;;1.90;1.23;;;15.60;40.40;;;;;;5154336;27;20197;-40
2022/05/30 00:58:48;;;;;;;1.70;0.95;;;15.60;40.60;;;;;;5154484;27;20247;-40
2022/05/30 01:01:15;;;;;;;1.52;1.00;;;15.60;40.60;;;;;;5154283;27;20221;-40
2022/05/30 01:06:42;;;;;;;1.63;0.85;;;15.60;41.10;;;;;;5154044;27;20691;-39
2022/05/30 01:09:16;;;;;;;1.75;1.00;;;15.60;40.80;;;;;;5154153;27;20817;-39
2022/05/30 01:11:50;;;;;;;1.48;0.80;;;15.60;40.80;;;;;;5154205;27;20629;-40
2022/05/30 01:14:16;;;;;;;3.67;1.05;;;15.60;40.90;;;;;;5154175;27;20260;-40
2022/05/30 01:16:41;;;;;;;2.20;1.17;;;15.60;40.80;;;;;;5154052;27;20276;-40
2022/05/30 01:19:36;;;;;;;1.60;1.00;;;15.60;41.30;;;;;;5153860;27;20577;-40
2022/05/30 01:22:23;;;;;;;1.60;1.10;;;15.60;41.00;;;;;;5141087;27;20197;-40
2022/05/30 01:25:02;;;;;;;1.92;1.02;;;15.60;41.00;;;;;;5153873;27;20196;-40
2022/05/30 01:27:28;;;;;;;1.73;1.23;;;15.60;41.10;;;;;;5153887;27;20262;-40
2022/05/30 01:30:00;;;;;;;1.60;1.10;;;15.60;41.30;;;;;;5154111;27;20170;-40
2022/05/30 01:32:26;;;;;;;1.80;1.10;;;15.60;41.00;;;;;;5154026;27;20170;-40
2022/05/30 01:34:52;;;;;;;1.70;1.23;;;15.60;40.70;;;;;;5153609;27;20170;-40
2022/05/30 01:37:18;;;;;;;2.20;1.50;;;15.50;40.50;;;;;;5153675;27;20228;-40
2022/05/30 01:39:43;;;;;;;1.87;1.43;;;15.50;40.60;;;;;;5154021;27;20226;-40
2022/05/30 01:42:09;;;;;;;1.97;1.43;;;15.50;40.60;;;;;;5153657;27;20649;-39
2022/05/30 01:44:36;;;;;;;2.03;1.13;;;15.60;40.80;;;;;;5153603;27;20162;-40
2022/05/30 01:47:02;;;;;;;1.95;1.20;;;15.60;41.00;;;;;;5153484;27;20723;-40
2022/05/30 01:49:28;;;;;;;2.03;1.17;;;15.60;41.30;;;;;;5153608;27;20174;-40
2022/05/30 01:51:54;;;;;;;1.90;1.37;;;15.60;41.50;;;;;;5153639;27;20407;-40
2022/05/30 01:54:21;;;;;;;1.90;1.30;;;15.60;41.60;;;;;;5153646;27;20959;-40
2022/05/30 01:56:48;;;;;;;1.90;1.13;;;15.70;42.00;;;;;;5153732;27;20295;-40
2022/05/30 01:59:15;;;;;;;2.35;1.58;;;15.70;42.20;;;;;;5156587;27;20178;-40
2022/05/30 02:01:44;;;;;;;2.42;1.73;;;15.70;42.20;;;;;;5158072;27;20178;-40
2022/05/30 02:04:10;;;;;;;2.70;1.52;;;15.70;42.40;;;;;;5157664;27;20173;-40
2022/05/30 02:06:36;;;;;;;2.00;1.30;;;15.70;42.50;;;;;;5157797;27;20702;-39
2022/05/30 02:09:03;;;;;;;2.37;1.27;;;15.70;42.50;;;;;;5157571;27;20403;-39
2022/05/30 02:11:29;;;;;;;2.63;1.65;;;15.70;42.60;;;;;;5157888;27;20165;-40
2022/05/30 02:13:54;;;;;;;1.80;1.23;;;15.70;42.90;;;;;;5157592;27;20667;-40
2022/05/30 02:19:05;;;;;;;1.95;1.60;;;15.70;43.00;;;;;;5157467;27;20195;-40
2022/05/30 02:21:34;;;;;;;2.53;1.55;;;15.70;43.20;;;;;;5157417;27;20249;-40
2022/05/30 02:24:01;;;;;;;1.70;1.60;;;15.60;43.00;;;;;;5157164;27;20578;-40
2022/05/30 02:26:27;;;;;;;2.15;1.60;;;15.60;43.00;;;;;;5157194;27;20703;-39
2022/05/30 02:28:53;;;;;;;2.27;1.70;;;15.60;43.10;;;;;;5157234;27;20170;-40
2022/05/30 02:31:19;;;;;;;2.30;1.50;;;15.60;42.90;;;;;;5157321;27;20198;-40
2022/05/30 02:36:40;;;;;;;2.67;1.38;;;15.60;43.20;;;;;;5114361;27;20194;-40
2022/05/30 02:39:14;;;;;;;2.17;1.50;;;15.60;42.90;;;;;;5157006;27;20210;-40
2022/05/30 02:41:41;;;;;;;2.60;1.30;;;15.60;42.90;;;;;;5157073;27;20168;-40
2022/05/30 02:44:07;;;;;;;1.90;1.40;;;15.50;43.20;;;;;;5156861;27;20525;-40
2022/05/30 02:46:34;;;;;;;1.90;1.42;;;15.50;43.20;;;;;;5156962;27;20194;-40
2022/05/30 02:49:00;;;;;;;2.70;1.58;;;15.50;43.30;;;;;;5156846;27;20166;-40
2022/05/30 02:51:26;;;;;;;2.22;1.48;;;15.50;43.30;;;;;;5156805;27;20663;-40
2022/05/30 02:53:51;;;;;;;2.10;1.70;;;15.40;43.30;;;;;;5156925;27;20178;-40
2022/05/30 02:56:17;;;;;;;3.20;1.23;;;15.40;43.20;;;;;;5156537;27;20455;-40
2022/05/30 02:58:43;;;;;;;1.83;1.30;;;15.40;43.20;;;;;;5156606;27;20184;-40
2022/05/30 03:01:10;;;;;;;2.10;1.40;;;15.40;43.30;;;;;;5156574;27;20456;-40
2022/05/30 03:03:36;;;;;;;2.13;1.30;;;15.40;43.30;;;;;;5156506;27;20826;-40
2022/05/30 03:06:03;;;;;;;2.40;1.50;;;15.40;43.30;;;;;;5156541;27;20249;-40
2022/05/30 03:08:29;;;;;;;2.80;2.03;;;15.30;43.20;;;;;;5156336;27;20170;-40
2022/05/30 03:10:55;;;;;;;2.85;2.22;;;15.30;43.20;;;;;;5155603;27;20166;-39
2022/05/30 03:13:20;;;;;;;4.20;1.40;;;15.30;43.20;;;;;;5156319;27;20207;-41
2022/05/30 03:15:46;;;;;;;2.27;1.77;;;15.30;43.30;;;;;;5156290;27;20479;-41
2022/05/30 03:18:12;;;;;;;2.20;1.97;;;15.30;43.40;;;;;;5156215;27;20256;-40
2022/05/30 03:20:37;;;;;;;1.90;1.63;;;15.30;43.50;;;;;;5156291;27;20166;-39
2022/05/30 03:23:03;;;;;;;2.47;1.60;;;15.30;43.40;;;;;;5156263;27;20189;-40
2022/05/30 03:25:29;;;;;;;2.35;1.95;;;15.30;43.50;;;;;;5155802;27;20462;-40
2022/05/30 03:27:58;;;;;;;2.20;1.77;;;15.20;43.50;;;;;;5156073;27;20170;-40
2022/05/30 03:30:24;;;;;;;2.45;1.45;;;15.20;44.10;;;;;;5156007;27;20237;-40
2022/05/30 03:32:50;;;;;;;2.17;1.50;;;15.20;43.80;;;;;;5156126;27;20203;-39
2022/05/30 03:35:16;;;;;;;2.77;2.17;;;15.20;43.70;;;;;;5156028;27;20402;-40
2022/05/30 03:37:43;;;;;;;2.53;2.05;;;15.10;43.60;;;;;;5155766;27;20423;-40
2022/05/30 03:40:12;;;;;;;2.88;1.48;;;15.10;43.50;;;;;;5156160;27;20529;-38
2022/05/30 03:42:38;;;;;;;2.40;1.70;;;15.10;43.60;;;;;;5155849;27;20173;-38
2022/05/30 03:45:05;;;;;;;1.93;1.70;;;15.10;43.70;;;;;;5155506;27;20645;-38
2022/05/30 03:47:45;;;;;;;2.28;1.63;;;15.00;43.60;;;;;;5155622;27;20545;-37
2022/05/30 03:50:14;;;;;;;2.20;1.35;;;15.00;43.60;;;;;;5156014;27;20158;-38
2022/05/30 03:52:40;;;;;;;2.10;1.52;;;15.00;43.80;;;;;;5155658;27;20162;-38
2022/05/30 03:55:11;;;;;;;2.27;1.43;;;15.00;43.70;;;;;;5137070;27;20163;-38
2022/05/30 03:57:38;;;;;;;2.05;1.50;;;15.00;43.60;;;;;;5155369;27;20186;-37
2022/05/30 04:00:04;;;;;;;2.88;1.90;;;14.90;43.60;;;;;;5155464;27;20649;-37
2022/05/30 04:02:30;;;;;;;2.00;1.42;;;14.90;43.80;;;;;;5155219;27;20656;-38
2022/05/30 04:04:56;;;;;;;2.30;1.47;;;14.90;43.90;;;;;;5155342;27;20166;-37
2022/05/30 04:07:21;;;;;;;2.47;1.37;;;14.90;44.00;;;;;;5155082;27;20347;-38
2022/05/30 04:09:47;;;;;;;2.53;1.70;;;14.90;44.20;;;;;;5136720;27;20578;-38
2022/05/30 04:12:13;;;;;;;3.10;1.80;;;15.00;44.00;;;;;;5155181;27;20502;-38
2022/05/30 04:14:39;;;;;;;3.70;2.10;;;15.00;44.00;;;;;;5155297;27;20170;-37
2022/05/30 04:17:05;;;;;;;2.10;1.70;;;15.00;44.20;;;;;;5155212;27;20202;-38
2022/05/30 04:19:31;;;;;;;2.97;1.70;;;15.10;44.30;;;;;;5155032;27;20177;-38
2022/05/30 04:21:56;;;;;;;2.90;1.60;;;15.10;44.30;;;;;;5155071;27;20767;-38
2022/05/30 04:24:22;;;;;;;2.87;1.40;;;15.10;44.30;;;;;;5154776;27;20423;-38
2022/05/30 04:26:48;;;;;;;5.97;2.30;;;15.20;44.50;;;;;;5154641;27;20217;-38
2022/05/30 04:29:13;;;;;;;2.90;2.30;;;15.30;44.50;;;;;;5155175;27;20170;-38
2022/05/30 04:31:39;;;;;;;2.97;1.77;;;15.30;44.50;;;;;;5154901;27;20169;-38
2022/05/30 04:34:06;;;;;;;2.25;1.73;;;15.40;44.50;;;;;;5154859;27;20218;-38
2022/05/30 04:36:33;;;;;;;2.63;1.70;;;15.40;45.30;;;;;;5154686;27;20189;-38
2022/05/30 04:38:59;;;;;;;3.03;2.60;;;15.50;44.40;;;;;;5154855;27;20209;-38
2022/05/30 04:41:25;;;;;;;3.03;1.90;;;15.50;44.10;;;;;;5154541;27;20242;-37
2022/05/30 04:43:50;;;;;;;2.33;1.70;;;15.50;44.10;;;;;;5154620;27;20846;-38
2022/05/30 04:46:19;;;;;;;5.13;2.13;;;15.60;44.50;;;;;;5154558;27;20205;-38
2022/05/30 04:48:46;;;;;;;4.00;2.60;;;15.70;44.40;;;;;;5154669;27;20231;-38
2022/05/30 04:51:12;;;;;;;3.38;2.15;;;15.70;44.40;;;;;;5154737;27;20510;-38
2022/05/30 04:53:40;;;;;;;2.83;2.10;;;15.70;44.20;;;;;;5154402;27;20211;-38
2022/05/30 04:56:06;;;;;;;2.53;2.33;;;15.80;44.40;;;;;;5154117;27;20451;-38
2022/05/30 04:58:34;;;;;;;3.10;2.03;;;15.80;44.20;;;;;;5154320;27;20169;-38
2022/05/30 05:01:03;;;;;;;2.58;1.80;;;15.80;43.90;;;;;;5154469;27;20174;-38
2022/05/30 05:03:30;;;;;;;2.95;2.33;;;15.90;43.70;;;;;;5154328;27;20170;-38
2022/05/30 05:06:07;;;;;;;2.75;2.30;;;15.90;43.60;;;;;;5154229;27;20232;-38
2022/05/30 05:08:53;;;;;;;1.67;1.30;;;15.90;43.50;;;;;;5154101;27;20176;-38
2022/05/30 05:11:27;;;;;;;3.28;2.10;;;15.90;43.40;;;;;;5154307;27;20202;-38
2022/05/30 05:13:53;;;;;;;2.88;2.05;;;15.90;43.30;;;;;;5154674;27;20233;-38
2022/05/30 05:16:22;;;;;;;4.23;2.60;;;15.90;43.20;;;;;;5153835;27;20293;-38
2022/05/30 05:18:49;;;;;;;2.65;1.92;;;15.90;43.50;;;;;;5153664;27;20177;-40
2022/05/30 05:21:23;;;;;;;2.03;1.48;;;16.00;42.80;;;;;;5154024;27;20194;-40
2022/05/30 05:23:49;;;;;;;2.38;1.48;;;16.10;42.80;;;;;;5154075;27;20281;-40
2022/05/30 05:26:17;;;;;;;2.80;2.05;;;16.10;42.90;;;;;;5153654;27;20292;-40
2022/05/30 05:28:43;;;;;;;2.22;1.80;;;16.20;43.30;;;;;;5154815;27;20188;-40
2022/05/30 05:31:11;;;;;;;2.90;1.75;;;16.30;42.40;;;;;;5153739;27;20173;-40
2022/05/30 05:33:37;;;;;;;3.88;2.50;;;16.30;42.40;;;;;;5153336;27;20162;-40
2022/05/30 05:36:03;;;;;;;2.53;2.10;;;16.40;42.50;;;;;;5153579;27;20264;-40
2022/05/30 05:38:29;;;;;;;3.45;1.50;;;16.40;42.30;;;;;;5153638;27;20529;-40
2022/05/30 05:40:55;;;;;;;2.77;1.60;;;16.50;42.20;;;;;;5154320;27;20174;-40
2022/05/30 05:43:20;;;;;;;1.93;1.60;;;16.40;41.90;;;;;;5153738;27;20170;-39
2022/05/30 05:45:46;;;;;;;8.80;1.97;;;16.40;42.10;;;;;;5153550;27;20974;-40
2022/05/30 05:48:13;;;;;;;2.00;1.70;;;16.40;42.30;;;;;;5153821;27;20170;-40
2022/05/30 05:50:43;;;;;;;2.70;1.52;;;16.50;42.20;;;;;;5153690;27;20403;-40
2022/05/30 05:53:12;;;;;;;2.80;2.30;;;16.50;42.00;;;;;;5154057;27;20174;-40
2022/05/30 05:55:38;;;;;;;3.60;2.70;;;16.50;42.00;;;;;;5153392;27;20239;-40
2022/05/30 05:58:05;;;;;;;2.57;1.87;;;16.50;41.90;;;;;;5153692;27;20633;-40
2022/05/30 06:00:31;;;;;;;3.78;2.38;;;16.50;42.20;;;;;;5153408;27;20455;-40
2022/05/30 06:02:57;;;;;;;2.67;2.30;;;16.50;42.10;;;;;;5153510;27;20176;-39
2022/05/30 06:05:23;;;;;;;3.08;2.20;;;16.60;42.30;;;;;;5153229;27;20201;-40
2022/05/30 06:07:49;;;;;;;2.97;2.47;;;16.70;43.10;;;;;;5153323;27;20200;-39
2022/05/30 06:10:15;;;;;;;7.10;3.27;;;16.80;42.60;;;;;;5153444;27;20411;-40
2022/05/30 06:12:44;;;;;;;5.18;4.05;;;17.00;42.70;;;;;;5153464;27;20452;-40
2022/05/30 06:15:20;;;;;;;6.30;5.07;;;17.10;42.70;;;;;;5153119;27;20181;-39
2022/05/30 06:17:46;;;;;;;8.20;5.25;;;17.20;42.70;;;;;;5153587;27;20201;-40
2022/05/30 06:20:15;;;;;;;5.38;4.25;;;17.20;41.60;;;;;;5153572;27;20177;-39
2022/05/30 06:22:41;;;;;;;8.40;5.75;;;17.20;41.80;;;;;;5153350;27;20170;-40
2022/05/30 06:25:08;;;;;;;10.40;4.97;;;17.20;42.20;;;;;;5153403;27;20196;-40
2022/05/30 06:27:34;;;;;;;6.30;4.80;;;17.20;42.20;;;;;;5152868;27;20477;-39
2022/05/30 06:30:01;;;;;;;7.53;4.38;;;17.30;42.00;;;;;;5153290;27;20254;-40
2022/05/30 06:32:27;;;;;;;6.93;4.63;;;17.30;42.10;;;;;;5153497;27;20169;-39
2022/05/30 06:34:53;;;;;;;5.32;4.13;;;17.30;42.00;;;;;;5153239;27;20174;-39
2022/05/30 06:37:18;;;;;;;8.53;5.30;;;17.30;42.10;;;;;;5153384;27;20234;-40
2022/05/30 06:39:44;;;;;;;8.83;5.27;;;17.30;42.00;;;;;;5153231;27;20410;-40
2022/05/30 06:42:12;;;;;;;6.93;5.18;;;17.30;41.90;;;;;;5153149;27;20222;-40
2022/05/30 06:44:38;;;;;;;8.32;4.85;;;17.30;41.50;;;;;;5153486;27;20193;-39
2022/05/30 06:47:05;;;;;;;7.50;4.93;;;17.20;41.20;;;;;;5156583;27;20201;-40
2022/05/30 06:49:31;;;;;;;6.78;5.10;;;17.20;41.40;;;;;;5156840;27;20178;-40
2022/05/30 06:51:57;;;;;;;7.60;5.18;;;17.20;41.40;;;;;;5138463;27;20339;-39
2022/05/30 06:54:24;;;;;;;6.82;5.43;;;17.10;41.40;;;;;;5156674;27;20186;-40
2022/05/30 06:59:34;;;;;;;6.13;5.07;;;17.10;41.30;;;;;;5156875;27;20165;-40
2022/05/30 07:02:01;;;;;;;7.25;5.90;;;17.10;41.50;;;;;;5156970;27;20223;-40
2022/05/30 07:04:31;;;;;;;6.95;4.82;;;17.10;41.30;;;;;;5156295;27;20590;-39
2022/05/30 07:06:57;;;;;;;6.93;4.85;;;17.00;41.30;;;;;;5156733;27;20277;-40
2022/05/30 07:09:22;;;;;;;4.83;4.10;;;17.00;41.30;;;;;;5156419;27;20190;-40
2022/05/30 07:11:49;;;;;;;5.27;3.53;;;17.00;41.20;;;;;;5156532;27;20181;-40
2022/05/30 07:14:16;;;;;;;9.25;5.68;;;17.10;41.50;;;;;;5156430;27;20507;-40
2022/05/30 07:16:42;;;;;;;5.93;4.15;;;17.10;41.70;;;;;;5156303;27;20194;-40
2022/05/30 07:19:09;;;;;;;5.88;5.07;;;17.20;41.10;;;;;;5156482;27;20166;-39
2022/05/30 07:21:36;;;;;;;5.13;4.05;;;17.20;41.30;;;;;;5176657;27;20174;-40
2022/05/30 07:24:02;;;;;;;7.93;4.68;;;17.30;41.10;;;;;;5172166;27;20196;-40
2022/05/30 07:26:29;;;;;;;5.55;4.75;;;17.30;41.30;;;;;;5157937;27;20257;-40
2022/05/30 07:28:55;;;;;;;4.43;3.95;;;17.40;40.80;;;;;;5156212;27;20264;-40
2022/05/30 07:31:25;;;;;;;3.40;2.80;;;17.40;40.80;;;;;;5156142;27;20274;-40
2022/05/30 07:33:51;;;;;;;5.43;3.30;;;17.50;40.70;;;;;;5156359;27;20879;-41
2022/05/30 07:36:24;;;;;;;4.05;2.75;;;17.50;40.30;;;;;;5155905;27;20708;-40
2022/05/30 07:38:50;;;;;;;4.25;3.78;;;17.60;40.30;;;;;;5155894;27;20540;-40
2022/05/30 07:41:16;;;;;;;4.28;3.38;;;17.60;39.70;;;;;;5156101;27;20174;-40
2022/05/30 07:43:43;;;;;;;4.90;3.63;;;17.70;39.80;;;;;;5156121;27;20529;-40
2022/05/30 07:46:11;;;;;;;4.68;3.92;;;17.70;39.50;;;;;;5155502;27;20451;-41
2022/05/30 07:48:37;;;;;;;4.38;3.97;;;17.70;39.70;;;;;;5155759;27;20170;-40
2022/05/30 07:51:04;;;;;;;4.70;3.72;;;17.80;39.70;;;;;;5155644;27;20804;-41
2022/05/30 07:53:31;;;;;;;5.75;4.10;;;17.80;39.50;;;;;;5155750;27;20245;-40
2022/05/30 07:55:58;;;;;;;6.90;4.53;;;17.70;39.20;;;;;;5155101;27;20683;-40
2022/05/30 07:58:24;;;;;;;5.15;4.03;;;17.70;39.20;;;;;;5156148;27;20276;-40
2022/05/30 08:00:52;;;;;;;7.43;5.28;;;17.70;39.10;;;;;;5155679;27;20564;-40
2022/05/30 08:03:18;;;;;;;7.40;5.25;;;17.70;39.00;;;;;;5155663;27;20181;-40
2022/05/30 08:05:47;;;;;;;6.45;3.33;;;17.70;38.90;;;;;;5155176;27;20209;-40
2022/05/30 08:08:17;;;;;;;4.78;3.70;;;17.70;38.80;;;;;;5155239;27;20170;-40
2022/05/30 08:10:42;;;;;;;5.28;3.38;;;17.70;38.50;;;;;;5155266;27;20541;-40
2022/05/30 08:13:08;;;;;;;4.00;3.60;;;17.70;37.80;;;;;;5155330;27;20654;-40
2022/05/30 08:15:35;;;;;;;4.90;3.40;;;17.70;37.70;;;;;;5155007;27;20234;-40
2022/05/30 08:18:02;;;;;;;4.82;3.83;;;17.70;38.20;;;;;;5155283;27;20567;-40
2022/05/30 08:20:31;;;;;;;4.95;3.80;;;17.80;37.80;;;;;;5155328;27;20533;-41
2022/05/30 08:22:57;;;;;;;5.88;3.45;;;17.90;38.40;;;;;;5154968;27;20169;-40
2022/05/30 08:25:23;;;;;;;4.00;3.33;;;18.00;37.90;;;;;;5154691;27;20194;-40
2022/05/30 08:27:49;;;;;;;3.80;3.40;;;18.20;38.20;;;;;;5155098;27;20202;-39
2022/05/30 08:30:18;;;;;;;4.72;3.95;;;18.40;38.50;;;;;;5154966;27;20403;-40
2022/05/30 08:32:45;;;;;;;4.18;3.00;;;18.60;37.70;;;;;;5154795;27;20174;-40
2022/05/30 08:35:14;;;;;;;4.50;3.67;;;18.60;37.60;;;;;;5154841;27;20198;-40
2022/05/30 08:37:41;;;;;;;5.10;3.40;;;18.80;36.60;;;;;;5154631;27;20186;-40
2022/05/30 08:43:03;;;;;;;4.60;3.35;;;19.00;36.30;;;;;;5154876;27;20718;-40
2022/05/30 08:45:29;;;;;;;4.53;3.07;;;19.00;36.50;;;;;;5154610;27;20174;-40
2022/05/30 08:47:57;;;;;;;3.73;2.90;;;19.10;35.10;;;;;;5154474;27;21095;-40
2022/05/30 08:50:35;;;;;;;3.38;2.72;;;19.20;35.50;;;;;;5154394;27;20399;-39
2022/05/30 08:53:31;;;;;;;5.30;2.50;;;19.40;35.30;;;;;;5153981;27;20195;-40
2022/05/30 08:56:00;;;;;;;3.00;2.03;;;19.60;35.30;;;;;;5154318;27;20545;-41
2022/05/30 08:58:54;;;;;;;3.15;2.60;;;19.90;34.70;;;;;;5154318;27;20204;-40
2022/05/30 09:01:39;;;;;;;5.13;3.35;;;20.10;34.90;;;;;;5154691;27;20165;-40
2022/05/30 09:04:24;;;;;;;3.35;2.40;;;20.30;34.60;;;;;;5154340;27;20201;-41
2022/05/30 09:06:57;;;;;;;3.55;2.83;;;20.40;31.20;;;;;;5154108;27;20561;-40
2022/05/30 09:09:41;;;;;;;3.80;3.30;;;20.40;32.80;;;;;;5154137;27;20626;-40
2022/05/30 09:12:19;;;;;;;6.00;3.10;;;20.50;33.20;;;;;;5154106;27;20533;-41
2022/05/30 09:14:53;;;;;;;3.75;3.25;;;20.70;33.60;;;;;;5154026;27;20189;-40
2022/05/30 09:17:27;;;;;;;6.97;3.25;;;20.80;33.30;;;;;;5153995;27;20668;-40
2022/05/30 09:19:54;;;;;;;6.10;3.28;;;20.80;32.30;;;;;;5154045;27;20174;-40
2022/05/30 09:22:21;;;;;;;3.00;2.60;;;20.80;32.70;;;;;;5153912;27;20556;-41
2022/05/30 09:25:55;;;;;;;2.80;2.05;;;20.70;31.70;;;;;;5153964;27;20242;-40
2022/05/30 09:27:33;;;;;;;4.30;2.80;;;20.70;31.30;;;;;;5153467;27;20300;-40
2022/05/30 09:30:01;;;;;;;3.00;2.58;;;20.80;32.40;;;;;;5154046;27;20197;-40
2022/05/30 09:32:48;;;;;;;3.13;2.47;;;20.90;32.30;;;;;;5154118;27;20178;-40
2022/05/30 09:35:32;;;;;;;2.90;2.25;;;21.10;33.10;;;;;;5153768;27;20158;-41
2022/05/30 09:38:10;;;;;;;2.80;2.30;;;21.30;32.10;;;;;;5153779;27;20169;-40
2022/05/30 09:40:57;;;;;;;3.47;2.53;;;21.30;30.10;;;;;;5153950;27;20173;-40
2022/05/30 09:43:27;;;;;;;2.85;2.10;;;21.10;30.90;;;;;;5153678;27;20174;-40
2022/05/30 09:45:54;;;;;;;3.05;2.60;;;21.00;31.20;;;;;;5153502;27;20197;-40
2022/05/30 09:48:21;;;;;;;2.65;2.03;;;21.10;31.60;;;;;;5153642;27;20166;-40
2022/05/30 09:50:58;;;;;;;3.20;2.45;;;21.40;32.40;;;;;;5153747;27;20729;-40
2022/05/30 09:53:51;;;;;;;5.95;2.30;;;21.60;32.60;;;;;;5153606;27;20165;-40
2022/05/30 09:56:19;;;;;;;3.10;2.53;;;21.80;31.10;;;;;;5142808;27;20194;-40
2022/05/30 09:59:02;;;;;;;2.75;2.25;;;21.80;30.70;;;;;;5153775;27;20487;-40
2022/05/30 10:01:30;;;;;;;3.55;2.72;;;21.80;31.70;;;;;;5153585;27;20173;-41
2022/05/30 10:04:34;;;;;;;3.10;1.63;;;21.80;31.30;;;;;;5153440;27;20725;-40
2022/05/30 10:07:11;;;;;;;2.20;1.30;;;21.90;30.30;;;;;;5153444;27;20928;-40
2022/05/30 10:09:58;;;;;;;2.93;2.07;;;22.10;29.50;;;;;;5153637;27;20436;-41
2022/05/30 10:12:36;;;;;;;2.15;1.70;;;22.20;29.10;;;;;;5153490;27;20384;-41
2022/05/30 10:15:24;;;;;;;2.87;1.67;;;22.20;29.40;;;;;;5153648;27;20174;-41
2022/05/30 10:17:51;;;;;;;3.93;2.40;;;22.50;31.20;;;;;;5153870;27;20399;-39
2022/05/30 10:20:32;;;;;;;2.38;1.95;;;22.60;28.70;;;;;;5156454;27;20406;-38
2022/05/30 10:30:04;;;;;;;5.97;3.03;;;22.30;29.00;;;;;;5157359;27;20739;-38
2022/05/30 10:32:41;;;;;;;5.43;2.20;;;22.10;29.90;;;;;;5157202;27;20400;-39
2022/05/30 10:35:48;;;;;;;5.00;2.47;;;22.10;30.50;;;;;;5157113;27;21031;-38
2022/05/30 10:38:41;;;;;;;2.57;1.77;;;21.90;30.10;;;;;;5157085;27;20422;-39
2022/05/30 10:41:09;;;;;;;2.63;1.83;;;21.60;30.40;;;;;;5157140;27;20406;-39
2022/05/30 10:43:57;;;;;;;2.40;1.40;;;21.50;30.90;;;;;;5156953;27;20403;-38
2022/05/30 10:46:47;;;;;;;2.60;1.57;;;21.40;31.00;;;;;;5156757;27;20620;-39
2022/05/30 10:49:16;;;;;;;2.30;1.70;;;21.20;31.00;;;;;;5157146;27;20384;-38
2022/05/30 10:52:09;;;;;;;4.10;1.83;;;21.10;31.10;;;;;;5156818;27;20439;-38
2022/05/30 10:54:43;;;;;;;2.65;1.88;;;21.00;30.90;;;;;;5156703;27;20139;-38
2022/05/30 10:57:12;;;;;;;2.67;2.13;;;20.90;30.70;;;;;;5156661;27;20212;-38
2022/05/30 10:59:43;;;;;;;5.38;1.90;;;20.90;30.20;;;;;;5156803;27;20199;-38
2022/05/30 11:02:32;;;;;;;3.38;1.80;;;21.00;31.80;;;;;;5156723;27;20169;-38
2022/05/30 11:05:25;;;;;;;2.88;2.05;;;21.10;32.00;;;;;;5156867;27;20191;-38
2022/05/30 11:08:10;;;;;;;2.97;2.20;;;21.20;32.20;;;;;;5157119;27;20190;-38
2022/05/30 11:10:43;;;;;;;3.67;1.77;;;21.40;32.90;;;;;;5156579;27;20629;-39
2022/05/30 11:13:34;;;;;;;4.53;1.50;;;21.60;32.30;;;;;;5156425;27;20494;-39
2022/05/30 11:16:11;;;;;;;1.90;1.50;;;21.70;32.00;;;;;;5156220;27;20418;-38
2022/05/30 11:18:54;;;;;;;1.97;1.30;;;21.70;31.60;;;;;;5156594;27;20383;-38
2022/05/30 11:21:41;;;;;;;1.75;1.23;;;21.80;29.60;;;;;;5156235;27;20490;-38
2022/05/30 11:24:08;;;;;;;2.30;1.85;;;21.80;30.00;;;;;;5156247;27;20185;-39
2022/05/30 11:27:08;;;;;;;1.80;1.27;;;21.80;30.70;;;;;;5156032;27;20228;-38
2022/05/30 11:29:46;;;;;;;2.08;1.48;;;21.80;29.70;;;;;;5148805;27;20178;-39
2022/05/30 11:32:36;;;;;;;2.78;1.92;;;22.00;30.20;;;;;;5156430;27;20170;-40
2022/05/30 11:35:32;;;;;;;2.55;1.40;;;22.10;29.20;;;;;;5155996;27;20194;-39
2022/05/30 11:38:05;;;;;;;1.80;1.30;;;22.10;29.60;;;;;;5155748;27;20534;-39
2022/05/30 11:41:09;;;;;;;1.92;1.40;;;21.90;29.20;;;;;;5156031;27;20475;-39
2022/05/30 11:44:02;;;;;;;1.90;1.30;;;21.80;29.80;;;;;;5155820;27;20185;-39
2022/05/30 11:46:39;;;;;;;1.90;1.42;;;21.60;30.40;;;;;;5155808;27;20451;-40
2022/05/30 11:49:11;;;;;;;2.27;1.70;;;21.60;30.20;;;;;;5155956;27;20222;-40
2022/05/30 11:51:42;;;;;;;2.83;1.93;;;21.50;30.40;;;;;;5155687;27;20945;-39
2022/05/30 11:54:26;;;;;;;2.13;1.90;;;21.60;30.90;;;;;;5155814;27;20772;-39
2022/05/30 11:57:09;;;;;;;2.50;1.90;;;21.80;31.10;;;;;;5155461;27;20200;-38
2022/05/30 12:00:14;;;;;;;3.10;2.10;;;22.00;31.50;;;;;;5155540;27;20420;-40
2022/05/30 12:02:57;;;;;;;3.00;2.00;;;22.40;31.10;;;;;;5132967;27;20771;-38
2022/05/30 12:05:26;;;;;;;3.23;2.13;;;22.50;28.60;;;;;;5155292;27;20386;-38
2022/05/30 12:08:10;;;;;;;2.90;2.60;;;22.60;28.20;;;;;;5155181;27;20954;-38
2022/05/30 12:11:04;;;;;;;2.87;2.03;;;22.70;29.10;;;;;;5155269;27;20882;-39
2022/05/30 12:13:48;;;;;;;2.60;2.20;;;22.90;28.30;;;;;;5155209;27;20407;-38
2022/05/30 12:16:45;;;;;;;3.67;2.27;;;23.20;28.70;;;;;;5155034;27;20926;-39
2022/05/30 12:24:56;;;;;;;2.40;1.97;;;23.40;28.10;;;;;;5154821;27;20438;-39
2022/05/30 12:27:28;;;;;;;1.90;1.50;;;23.30;27.70;;;;;;5154757;27;20454;-39
2022/05/30 12:29:55;;;;;;;3.90;1.40;;;23.10;26.60;;;;;;5155107;27;20261;-39
2022/05/30 12:32:21;;;;;;;2.40;1.30;;;22.90;26.90;;;;;;5155122;27;20483;-39
2022/05/30 12:35:18;;;;;;;2.13;1.20;;;22.70;27.60;;;;;;5154976;27;20547;-38
2022/05/30 12:38:10;;;;;;;2.10;1.60;;;22.60;27.70;;;;;;5154638;27;20415;-39
2022/05/30 12:40:39;;;;;;;2.77;1.53;;;22.50;28.40;;;;;;5154615;27;20739;-39
2022/05/30 12:43:29;;;;;;;2.70;1.80;;;22.40;28.60;;;;;;5153765;27;20411;-38
2022/05/30 12:45:54;;;;;;;3.33;1.77;;;22.40;27.90;;;;;;5154376;27;20443;-38
2022/05/30 12:48:53;;;;;;;3.27;1.83;;;22.20;27.70;;;;;;5154490;27;20410;-39
2022/05/30 12:51:58;;;;;;;2.57;1.80;;;22.10;28.40;;;;;;5154509;27;20222;-40
2022/05/30 12:54:48;;;;;;;3.13;1.50;;;22.20;29.80;;;;;;5102779;27;20410;-38
2022/05/30 12:57:37;;;;;;;3.27;1.90;;;22.40;29.50;;;;;;5136123;27;20607;-37
2022/05/30 13:00:21;;;;;;;2.27;1.60;;;22.50;26.70;;;;;;5155196;27;20403;-39
2022/05/30 13:02:49;;;;;;;2.57;1.47;;;22.40;27.10;;;;;;5154536;27;20495;-40
2022/05/30 13:05:43;;;;;;;2.30;1.47;;;22.50;29.30;;;;;;5153968;27;20440;-40
2022/05/30 13:08:46;;;;;;;2.53;1.53;;;22.80;29.20;;;;;;5154221;27;20414;-40
2022/05/30 13:11:22;;;;;;;3.10;1.97;;;23.10;27.90;;;;;;5154266;27;20460;-38
2022/05/30 13:13:55;;;;;;;3.00;1.73;;;23.40;28.60;;;;;;5154196;27;20387;-40
2022/05/30 13:16:39;;;;;;;3.17;1.90;;;23.60;28.00;;;;;;5153812;27;20902;-40
2022/05/30 13:19:06;;;;;;;4.00;1.43;;;23.60;27.50;;;;;;5154246;27;20432;-40
2022/05/30 13:21:32;;;;;;;2.07;1.10;;;23.50;27.10;;;;;;5154282;27;20482;-40
2022/05/30 13:23:59;;;;;;;2.60;1.57;;;23.40;27.80;;;;;;5153779;27;20450;-40
2022/05/30 13:26:31;;;;;;;2.10;1.50;;;23.30;27.00;;;;;;5153940;27;20466;-40
2022/05/30 13:29:00;;;;;;;2.37;1.70;;;23.30;26.90;;;;;;5154287;27;20433;-40
2022/05/30 13:31:28;;;;;;;1.97;1.50;;;23.50;28.00;;;;;;5153799;27;20762;-40
2022/05/30 13:33:54;;;;;;;4.47;1.57;;;23.70;27.90;;;;;;5153780;27;20395;-39
2022/05/30 13:36:30;;;;;;;1.90;1.17;;;23.80;27.10;;;;;;5153538;27;20419;-40
2022/05/30 13:38:57;;;;;;;2.50;1.43;;;23.90;26.30;;;;;;5153788;27;20751;-39